createdAt,value
2018-02-02T00:01:20.836Z,79.40
2018-02-02T00:03:51.082Z,79.42
2018-02-02T00:06:26.100Z,79.31
2018-02-02T00:08:55.330Z,79.43
2018-02-02T00:11:24.422Z,79.52
2018-02-02T00:13:54.168Z,79.47
2018-02-02T00:16:24.819Z,79.39
2018-02-02T00:18:55.219Z,79.35
2018-02-02T00:21:25.937Z,79.31
2018-02-02T00:23:56.087Z,79.34
2018-02-02T00:26:26.727Z,79.39
2018-02-02T00:28:57.307Z,79.31
2018-02-02T00:31:28.239Z,79.24
2018-02-02T00:33:59.119Z,79.24
2018-02-02T00:36:29.791Z,79.21
2018-02-02T00:39:00.310Z,79.09
2018-02-02T00:41:30.536Z,79.12
2018-02-02T00:44:00.963Z,79.23
2018-02-02T00:46:31.746Z,79.32
2018-02-02T00:49:02.456Z,79.29
2018-02-02T00:51:38.167Z,79.25
2018-02-02T00:54:07.407Z,79.19
2018-02-02T00:56:38.212Z,79.15
2018-02-02T00:59:08.832Z,79.10
2018-02-02T01:01:39.723Z,79.06
2018-02-02T01:04:10.536Z,79.10
2018-02-02T01:06:40.907Z,79.04
2018-02-02T01:09:11.730Z,78.96
2018-02-02T01:11:43.444Z,79.07
2018-02-02T01:14:13.904Z,79.11
2018-02-02T01:16:47.665Z,79.07
2018-02-02T01:19:16.933Z,79.32
2018-02-02T01:21:46.428Z,79.40
2018-02-02T01:24:16.182Z,79.40
2018-02-02T01:26:47.459Z,79.33
2018-02-02T01:29:19.035Z,79.92
2018-02-02T01:31:49.468Z,79.69
2018-02-02T01:34:19.911Z,79.59
2018-02-02T01:36:50.771Z,79.54
2018-02-02T01:39:21.674Z,79.34
2018-02-02T01:41:52.504Z,79.11
2018-02-02T01:44:24.022Z,79.21
2018-02-02T01:46:54.855Z,79.30
2018-02-02T01:49:25.787Z,79.14
2018-02-02T01:51:56.599Z,79.18
2018-02-02T01:54:27.927Z,79.21
2018-02-02T01:56:59.271Z,79.23
2018-02-02T01:59:29.878Z,79.05
2018-02-02T02:02:00.699Z,79.09
2018-02-02T02:04:31.708Z,79.13
2018-02-02T02:07:01.919Z,78.92
2018-02-02T02:09:32.850Z,78.99
2018-02-02T02:12:03.690Z,78.71
2018-02-02T02:14:34.661Z,78.64
2018-02-02T02:17:05.590Z,78.66
2018-02-02T02:19:36.887Z,78.65
2018-02-02T02:22:07.674Z,78.61
2018-02-02T02:24:38.927Z,78.63
2018-02-02T02:27:09.367Z,78.73
2018-02-02T02:29:39.942Z,78.42
2018-02-02T02:32:10.749Z,78.78
2018-02-02T02:34:41.627Z,78.81
2018-02-02T02:37:12.467Z,78.81
2018-02-02T02:39:43.840Z,78.74
2018-02-02T02:42:14.659Z,78.60
2018-02-02T02:44:45.640Z,78.42
2018-02-02T02:47:16.515Z,78.40
2018-02-02T02:49:47.891Z,78.37
2018-02-02T02:52:18.717Z,78.29
2018-02-02T02:54:49.643Z,78.26
2018-02-02T02:57:20.704Z,78.21
2018-02-02T02:59:51.642Z,78.18
2018-02-02T03:02:22.510Z,78.21
2018-02-02T03:04:52.948Z,78.24
2018-02-02T03:07:23.755Z,78.25
2018-02-02T03:09:54.673Z,78.14
2018-02-02T03:12:25.158Z,78.07
2018-02-02T03:14:58.479Z,78.08
2018-02-02T03:17:27.595Z,78.08
2018-02-02T03:19:58.030Z,78.04
2018-02-02T03:22:28.477Z,77.94
2018-02-02T03:24:58.325Z,78.05
2018-02-02T03:27:29.830Z,78.00
2018-02-02T03:30:00.762Z,77.97
2018-02-02T03:32:31.596Z,77.97
2018-02-02T03:35:02.354Z,77.96
2018-02-02T03:37:33.822Z,77.83
2018-02-02T03:40:04.103Z,77.92
2018-02-02T03:42:33.950Z,77.92
2018-02-02T03:45:04.883Z,77.94
2018-02-02T03:47:35.680Z,77.93
2018-02-02T03:50:07.134Z,77.86
2018-02-02T03:52:38.342Z,77.83
2018-02-02T03:55:09.866Z,77.80
2018-02-02T03:57:40.930Z,77.72
2018-02-02T04:00:11.867Z,77.74
2018-02-02T04:02:42.715Z,77.74
2018-02-02T04:05:13.603Z,77.68
2018-02-02T04:07:44.290Z,77.69
2018-02-02T04:10:16.275Z,77.68
2018-02-02T04:12:46.909Z,77.74
2018-02-02T04:15:17.767Z,77.73
2018-02-02T04:17:48.823Z,77.68
2018-02-02T04:20:18.638Z,77.67
2018-02-02T04:22:49.867Z,77.58
2018-02-02T04:25:20.747Z,77.47
2018-02-02T04:27:51.560Z,77.43
2018-02-02T04:30:22.840Z,77.41
2018-02-02T04:32:53.682Z,77.34
2018-02-02T04:35:30.698Z,77.21
2018-02-02T04:37:59.746Z,77.19
2018-02-02T04:40:28.806Z,77.09
2018-02-02T04:42:57.928Z,77.01
2018-02-02T04:45:28.369Z,76.94
2018-02-02T04:47:58.283Z,77.00
2018-02-02T04:50:28.855Z,76.81
2018-02-02T04:52:59.727Z,76.75
2018-02-02T04:55:31.019Z,76.78
2018-02-02T04:58:02.064Z,76.78
2018-02-02T05:00:32.894Z,76.67
2018-02-02T05:03:03.434Z,76.62
2018-02-02T05:05:33.875Z,76.69
2018-02-02T05:08:05.089Z,76.51
2018-02-02T05:10:35.451Z,76.41
2018-02-02T05:13:06.203Z,76.38
2018-02-02T05:15:36.764Z,76.23
2018-02-02T05:18:09.726Z,76.12
2018-02-02T05:20:39.314Z,75.87
2018-02-02T05:23:09.155Z,76.15
2018-02-02T05:25:39.827Z,75.90
2018-02-02T05:28:10.709Z,75.85
2018-02-02T05:30:41.515Z,75.89
2018-02-02T05:33:12.896Z,75.69
2018-02-02T05:35:43.331Z,75.75
2018-02-02T05:38:14.071Z,75.34
2018-02-02T05:40:44.875Z,75.34
2018-02-02T05:43:15.728Z,75.15
2018-02-02T05:45:46.524Z,75.28
2018-02-02T05:48:17.828Z,75.09
2018-02-02T05:50:48.327Z,74.89
2018-02-02T05:53:18.924Z,74.80
2018-02-02T05:55:49.465Z,74.78
2018-02-02T05:58:21.106Z,74.90
2018-02-02T06:00:51.747Z,74.80
2018-02-02T06:03:23.162Z,74.75
2018-02-02T06:05:53.849Z,74.66
2018-02-02T06:08:24.834Z,74.68
2018-02-02T06:10:55.279Z,74.67
2018-02-02T06:13:25.899Z,74.60
2018-02-02T06:15:56.702Z,74.65
2018-02-02T06:18:27.359Z,74.55
2018-02-02T06:20:58.774Z,74.52
2018-02-02T06:23:29.644Z,74.64
2018-02-02T06:26:00.495Z,74.83
2018-02-02T06:28:32.020Z,74.90
2018-02-02T06:31:02.836Z,74.93
2018-02-02T06:33:33.995Z,74.91
2018-02-02T06:36:04.762Z,74.92
2018-02-02T06:38:35.316Z,74.76
2018-02-02T06:41:06.504Z,74.60
2018-02-02T06:43:36.989Z,74.63
2018-02-02T06:46:07.494Z,74.58
2018-02-02T06:48:37.970Z,74.75
2018-02-02T06:51:08.825Z,74.54
2018-02-02T06:53:39.346Z,74.56
2018-02-02T06:56:10.361Z,74.28
2018-02-02T06:58:39.691Z,74.46
2018-02-02T07:01:11.056Z,74.32
2018-02-02T07:03:41.903Z,74.42
2018-02-02T07:06:12.714Z,74.51
2018-02-02T07:08:43.268Z,74.58
2018-02-02T07:11:13.848Z,74.68
2018-02-02T07:13:44.740Z,74.78
2018-02-02T07:16:14.945Z,75.12
2018-02-02T07:18:45.455Z,75.11
2018-02-02T07:21:18.369Z,74.68
2018-02-02T07:23:48.171Z,74.56
2018-02-02T07:26:18.796Z,74.19
2018-02-02T07:28:49.663Z,74.76
2018-02-02T07:31:20.417Z,74.44
2018-02-02T07:33:52.063Z,73.88
2018-02-02T07:36:22.871Z,74.23
2018-02-02T07:38:53.735Z,74.77
2018-02-02T07:41:24.607Z,74.45
2018-02-02T07:43:55.547Z,74.65
2018-02-02T07:46:26.848Z,74.69
2018-02-02T07:48:57.443Z,74.82
2018-02-02T07:51:28.830Z,74.75
2018-02-02T07:53:59.726Z,74.77
2018-02-02T07:56:30.960Z,74.99
2018-02-02T07:59:01.573Z,74.76
2018-02-02T08:01:32.072Z,74.96
2018-02-02T08:04:02.859Z,74.86
2018-02-02T08:06:34.167Z,74.68
2018-02-02T08:09:04.479Z,74.59
2018-02-02T08:11:35.843Z,74.66
2018-02-02T08:14:06.864Z,74.51
2018-02-02T08:16:37.708Z,74.32
2018-02-02T08:19:08.793Z,74.18
2018-02-02T08:21:39.630Z,74.21
2018-02-02T08:24:10.986Z,74.10
2018-02-02T08:26:43.198Z,74.01
2018-02-02T08:29:12.494Z,74.01
2018-02-02T08:31:41.551Z,73.97
2018-02-02T08:34:12.428Z,74.01
2018-02-02T08:36:43.766Z,73.81
2018-02-02T08:39:14.584Z,73.42
2018-02-02T08:41:45.940Z,73.49
2018-02-02T08:44:16.788Z,72.99
2018-02-02T08:46:47.757Z,72.62
2018-02-02T08:49:18.587Z,72.75
2018-02-02T08:51:49.991Z,72.99
2018-02-02T08:54:20.781Z,72.92
2018-02-02T08:56:53.633Z,72.50
2018-02-02T08:59:23.259Z,72.58
2018-02-02T09:01:58.810Z,72.62
2018-02-02T09:04:28.677Z,72.64
2018-02-02T09:06:57.753Z,72.72
2018-02-02T09:09:26.917Z,72.50
2018-02-02T09:11:57.497Z,72.25
2018-02-02T09:14:27.875Z,72.01
2018-02-02T09:16:58.886Z,71.96
2018-02-02T09:19:30.005Z,71.84
2018-02-02T09:21:59.649Z,72.08
2018-02-02T09:24:34.478Z,71.69
2018-02-02T09:27:02.587Z,71.55
2018-02-02T09:29:33.807Z,71.29
2018-02-02T09:32:05.382Z,70.87
2018-02-02T09:34:35.891Z,70.77
2018-02-02T09:37:06.784Z,70.87
2018-02-02T09:39:38.076Z,70.75
2018-02-02T09:42:08.908Z,70.54
2018-02-02T09:44:39.773Z,70.57
2018-02-02T09:47:10.478Z,69.48
2018-02-02T09:49:41.960Z,69.88
2018-02-02T09:52:12.864Z,70.05
2018-02-02T09:54:43.713Z,69.56
2018-02-02T09:57:14.579Z,69.28
2018-02-02T09:59:46.090Z,69.30
2018-02-02T10:02:16.899Z,68.87
2018-02-02T10:04:47.807Z,68.84
2018-02-02T10:07:18.735Z,68.51
2018-02-02T10:09:50.291Z,68.19
2018-02-02T10:12:20.517Z,68.00
2018-02-02T10:14:51.111Z,67.99
2018-02-02T10:17:21.755Z,66.44
2018-02-02T10:19:53.113Z,67.36
2018-02-02T10:22:23.935Z,67.32
2018-02-02T10:24:54.849Z,67.54
2018-02-02T10:27:25.740Z,67.09
2018-02-02T10:29:56.621Z,65.95
2018-02-02T10:32:27.965Z,66.03
2018-02-02T10:34:58.887Z,66.28
2018-02-02T10:37:30.039Z,66.40
2018-02-02T10:40:01.106Z,65.41
2018-02-02T10:42:32.633Z,65.22
2018-02-02T10:45:02.543Z,65.65
2018-02-02T10:47:32.994Z,64.68
2018-02-02T10:50:04.528Z,63.69
2018-02-02T10:52:35.055Z,64.25
2018-02-02T10:55:05.921Z,63.76
2018-02-02T10:57:36.733Z,63.76
2018-02-02T11:00:07.653Z,63.29
2018-02-02T11:02:43.914Z,62.98
2018-02-02T11:05:12.982Z,62.85
2018-02-02T11:07:42.194Z,62.66
2018-02-02T11:10:11.747Z,62.67
2018-02-02T11:12:42.315Z,62.84
2018-02-02T11:15:12.675Z,61.61
2018-02-02T11:17:43.622Z,60.50
2018-02-02T11:20:14.115Z,60.47
2018-02-02T11:22:44.940Z,59.97
2018-02-02T11:25:15.861Z,59.16
2018-02-02T11:27:47.135Z,59.90
2018-02-02T11:30:17.479Z,60.37
2018-02-02T11:32:48.176Z,59.98
2018-02-02T11:35:18.781Z,60.81
2018-02-02T11:37:50.181Z,61.17
2018-02-02T11:40:20.854Z,60.13
2018-02-02T11:42:51.808Z,60.31
2018-02-02T11:45:22.279Z,60.41
2018-02-02T11:47:53.360Z,60.06
2018-02-02T11:50:23.907Z,60.00
2018-02-02T11:52:54.800Z,60.35
2018-02-02T11:55:25.583Z,58.71
2018-02-02T11:57:56.043Z,59.01
2018-02-02T12:00:26.742Z,59.06
2018-02-02T12:02:57.615Z,59.13
2018-02-02T12:05:28.716Z,58.67
2018-02-02T12:07:59.585Z,58.90
2018-02-02T12:10:30.838Z,59.03
2018-02-02T12:13:02.319Z,58.32
2018-02-02T12:15:32.955Z,57.52
2018-02-02T12:18:03.796Z,57.48
2018-02-02T12:20:34.143Z,57.78
2018-02-02T12:23:09.615Z,58.52
2018-02-02T12:28:54.185Z,56.93
2018-02-02T12:34:35.900Z,56.24
2018-02-02T12:37:04.607Z,56.87
2018-02-02T12:39:33.599Z,55.90
2018-02-02T12:42:02.595Z,56.23
2018-02-02T12:44:31.703Z,57.01
2018-02-02T12:47:00.775Z,55.26
2018-02-02T12:49:32.383Z,53.42
2018-02-02T12:52:01.471Z,54.44
2018-02-02T12:54:30.536Z,54.02
2018-02-02T12:57:00.051Z,55.26
2018-02-02T12:59:28.872Z,54.43
2018-02-02T13:01:57.813Z,54.71
2018-02-02T13:04:27.016Z,54.22
2018-02-02T13:06:56.181Z,54.45
2018-02-02T13:09:24.957Z,54.57
2018-02-02T13:11:53.898Z,53.77
2018-02-02T13:14:23.081Z,54.17
2018-02-02T13:16:51.870Z,54.74
2018-02-02T13:19:20.770Z,54.55
2018-02-02T13:21:49.653Z,54.82
2018-02-02T13:24:18.734Z,54.48
2018-02-02T13:26:47.992Z,54.86
2018-02-02T13:29:16.739Z,55.50
2018-02-02T13:31:45.529Z,54.75
2018-02-02T13:34:14.259Z,54.66
2018-02-02T13:36:43.264Z,54.39
2018-02-02T13:39:12.084Z,54.11
2018-02-02T13:41:41.779Z,54.13
2018-02-02T13:44:10.921Z,53.79
2018-02-02T13:46:39.943Z,53.84
2018-02-02T13:49:08.812Z,53.70
2018-02-02T13:51:37.743Z,53.34
2018-02-02T13:54:06.819Z,52.96
2018-02-02T13:56:35.754Z,53.13
2018-02-02T13:59:04.713Z,53.57
2018-02-02T14:01:33.682Z,52.60
2018-02-02T14:04:03.428Z,52.40
2018-02-02T14:06:32.494Z,52.63
2018-02-02T14:09:01.584Z,52.51
2018-02-02T14:11:30.716Z,52.95
2018-02-02T14:13:59.830Z,53.31
2018-02-02T14:16:29.380Z,53.69
2018-02-02T14:18:58.495Z,52.68
2018-02-02T14:21:27.596Z,52.86
2018-02-02T14:23:56.687Z,53.63
2018-02-02T14:26:26.280Z,52.32
2018-02-02T14:28:55.383Z,53.10
2018-02-02T14:31:24.562Z,53.09
2018-02-02T14:33:53.764Z,53.26
2018-02-02T14:36:23.014Z,53.66
2018-02-02T14:38:52.496Z,54.00
2018-02-02T14:41:22.988Z,54.27
2018-02-02T14:43:53.835Z,53.80
2018-02-02T14:46:24.690Z,54.29
2018-02-02T14:48:55.494Z,54.98
2018-02-02T14:51:26.907Z,55.44
2018-02-02T14:53:57.776Z,55.67
2018-02-02T14:56:28.647Z,56.13
2018-02-02T14:58:59.112Z,56.97
2018-02-02T15:01:29.998Z,57.17
2018-02-02T15:04:01.447Z,57.11
2018-02-02T15:06:31.982Z,57.42
2018-02-02T15:09:02.879Z,57.54
2018-02-02T15:11:34.417Z,57.74
2018-02-02T15:14:04.836Z,57.77
2018-02-02T15:16:36.022Z,58.00
2018-02-02T15:19:06.758Z,57.91
2018-02-02T15:21:37.646Z,58.07
2018-02-02T15:24:08.422Z,57.37
2018-02-02T15:26:39.875Z,57.64
2018-02-02T15:29:10.676Z,57.90
2018-02-02T15:31:42.756Z,57.99
2018-02-02T15:34:13.237Z,58.17
2018-02-02T15:36:43.852Z,58.39
2018-02-02T15:39:14.343Z,58.61
2018-02-02T15:41:44.989Z,58.59
2018-02-02T15:44:15.820Z,58.79
2018-02-02T15:46:46.882Z,58.62
2018-02-02T15:49:18.144Z,58.74
2018-02-02T15:51:48.903Z,58.94
2018-02-02T15:54:19.468Z,58.94
2018-02-02T15:56:50.888Z,58.88
2018-02-02T15:59:21.508Z,59.04
2018-02-02T16:01:56.966Z,59.24
2018-02-02T16:04:26.224Z,59.26
2018-02-02T16:06:55.344Z,59.56
2018-02-02T16:09:25.577Z,59.43
2018-02-02T16:11:56.540Z,59.61
2018-02-02T16:14:27.228Z,59.83
2018-02-02T16:16:57.897Z,60.59
2018-02-02T16:19:28.496Z,60.88
2018-02-02T16:21:59.847Z,61.02
2018-02-02T16:24:30.400Z,61.41
2018-02-02T16:27:01.679Z,61.68
2018-02-02T16:29:32.296Z,61.91
2018-02-02T16:32:02.979Z,62.05
2018-02-02T16:34:33.888Z,61.79
2018-02-02T16:37:04.319Z,61.82
2018-02-02T16:39:35.716Z,61.94
2018-02-02T16:42:06.418Z,61.86
2018-02-02T16:44:37.764Z,61.67
2018-02-02T16:47:10.135Z,61.23
2018-02-02T16:49:40.479Z,61.14
2018-02-02T16:52:10.748Z,61.33
2018-02-02T16:54:41.558Z,61.20
2018-02-02T16:57:12.706Z,61.41
2018-02-02T16:59:43.207Z,61.43
2018-02-02T17:02:15.760Z,61.41
2018-02-02T17:04:46.159Z,61.02
2018-02-02T17:07:16.743Z,61.24
2018-02-02T17:09:47.871Z,60.97
2018-02-02T17:12:18.923Z,60.17
2018-02-02T17:14:49.757Z,60.42
2018-02-02T17:17:20.248Z,60.38
2018-02-02T17:19:50.980Z,59.62
2018-02-02T17:22:21.859Z,60.10
2018-02-02T17:24:53.611Z,60.30
2018-02-02T17:27:24.506Z,60.49
2018-02-02T17:29:54.999Z,60.71
2018-02-02T17:32:25.775Z,60.78
2018-02-02T17:34:56.722Z,60.89
2018-02-02T17:37:27.137Z,60.56
2018-02-02T17:39:58.486Z,60.63
2018-02-02T17:42:28.944Z,60.54
2018-02-02T17:44:59.827Z,60.39
2018-02-02T17:47:30.764Z,60.52
2018-02-02T17:50:02.127Z,60.67
2018-02-02T17:52:33.041Z,60.34
2018-02-02T17:55:03.892Z,60.37
2018-02-02T17:57:34.992Z,60.48
2018-02-02T18:00:05.431Z,60.64
2018-02-02T18:05:39.168Z,61.03
2018-02-02T18:08:10.431Z,61.13
2018-02-02T18:10:39.516Z,61.20
2018-02-02T18:13:08.643Z,61.28
2018-02-02T18:15:37.799Z,61.18
2018-02-02T18:18:06.710Z,61.64
2018-02-02T18:20:35.809Z,61.32
2018-02-02T18:23:04.832Z,61.86
2018-02-02T18:25:33.816Z,62.28
2018-02-02T18:28:02.619Z,62.26
2018-02-02T18:30:31.785Z,62.75
2018-02-02T18:33:00.715Z,62.71
2018-02-02T18:35:29.270Z,62.78
2018-02-02T18:37:58.672Z,63.03
2018-02-02T18:40:28.058Z,63.13
2018-02-02T18:42:57.286Z,63.04
2018-02-02T18:45:26.480Z,63.12
2018-02-02T18:47:55.585Z,63.06
2018-02-02T18:50:24.940Z,62.91
2018-02-02T18:52:54.379Z,62.82
2018-02-02T18:55:23.599Z,62.81
2018-02-02T18:57:53.621Z,62.95
2018-02-02T19:00:24.157Z,63.22
2018-02-02T19:02:54.865Z,63.72
2018-02-02T19:05:25.745Z,64.03
2018-02-02T19:07:56.888Z,64.25
2018-02-02T19:10:27.521Z,64.36
2018-02-02T19:12:57.941Z,64.32
2018-02-02T19:15:28.863Z,64.42
2018-02-02T19:17:59.716Z,64.37
2018-02-02T19:20:30.720Z,64.44
2018-02-02T19:23:01.547Z,64.83
2018-02-02T19:25:33.167Z,65.07
2018-02-02T19:28:03.528Z,64.75
2018-02-02T19:30:33.974Z,64.33
2018-02-02T19:33:04.691Z,64.43
2018-02-02T19:35:36.161Z,64.12
2018-02-02T19:38:06.690Z,63.92
2018-02-02T19:40:38.123Z,63.54
2018-02-02T19:43:08.852Z,63.62
2018-02-02T19:45:39.890Z,63.82
2018-02-02T19:48:10.490Z,64.14
2018-02-02T19:50:41.381Z,64.20
2018-02-02T19:53:11.967Z,64.35
2018-02-02T19:55:42.771Z,64.61
2018-02-02T19:58:13.845Z,64.54
2018-02-02T20:00:43.839Z,64.64
2018-02-02T20:03:14.606Z,64.73
2018-02-02T20:05:45.470Z,64.83
2018-02-02T20:08:16.438Z,64.87
2018-02-02T20:10:47.184Z,65.08
2018-02-02T20:13:17.431Z,65.22
2018-02-02T20:15:47.778Z,65.20
2018-02-02T20:18:19.000Z,65.21
2018-02-02T20:20:50.195Z,65.11
2018-02-02T20:23:20.807Z,64.79
2018-02-02T20:25:51.854Z,65.10
2018-02-02T20:28:21.079Z,64.76
2018-02-02T20:30:51.058Z,65.86
2018-02-02T20:33:20.179Z,66.90
2018-02-02T20:35:49.314Z,67.08
2018-02-02T20:38:18.156Z,66.02
2018-02-02T20:40:46.712Z,65.78
2018-02-02T20:43:15.792Z,65.46
2018-02-02T20:45:44.834Z,65.74
2018-02-02T20:48:14.230Z,65.21
2018-02-02T20:50:43.345Z,66.28
2018-02-02T20:53:12.139Z,66.38
2018-02-02T20:55:41.023Z,66.00
2018-02-02T20:58:10.035Z,66.58
2018-02-02T21:00:39.070Z,67.22
2018-02-02T21:03:08.126Z,67.24
2018-02-02T21:05:36.948Z,67.23
2018-02-02T21:08:05.808Z,67.10
2018-02-02T21:10:34.893Z,67.18
2018-02-02T21:13:03.796Z,67.08
2018-02-02T21:15:32.766Z,67.44
2018-02-02T21:18:01.756Z,66.99
2018-02-02T21:20:30.781Z,67.51
2018-02-02T21:23:00.001Z,66.86
2018-02-02T21:25:28.864Z,67.07
2018-02-02T21:27:57.765Z,67.55
2018-02-02T21:30:26.712Z,67.61
2018-02-02T21:32:55.856Z,67.25
2018-02-02T21:35:24.807Z,66.67
2018-02-02T21:37:53.671Z,66.92
2018-02-02T21:40:22.908Z,67.11
2018-02-02T21:42:51.889Z,67.56
2018-02-02T21:45:20.801Z,67.67
2018-02-02T21:47:49.811Z,67.74
2018-02-02T21:50:18.929Z,67.46
2018-02-02T21:52:47.812Z,67.63
2018-02-02T21:55:16.939Z,67.79
2018-02-02T21:57:45.775Z,67.56
2018-02-02T22:00:14.568Z,67.58
2018-02-02T22:02:43.718Z,67.72
2018-02-02T22:05:12.813Z,68.06
2018-02-02T22:07:41.922Z,67.11
2018-02-02T22:10:10.820Z,67.40
2018-02-02T22:12:39.827Z,67.80
2018-02-02T22:15:08.792Z,67.07
2018-02-02T22:17:37.869Z,67.32
2018-02-02T22:20:06.544Z,67.75
2018-02-02T22:22:35.515Z,67.60
2018-02-02T22:25:04.707Z,67.50
2018-02-02T22:27:33.668Z,67.24
2018-02-02T22:30:02.742Z,67.18
2018-02-02T22:32:31.701Z,67.58
2018-02-02T22:35:00.768Z,67.85
2018-02-02T22:37:29.708Z,68.09
2018-02-02T22:39:58.958Z,68.12
2018-02-02T22:42:27.740Z,68.00
2018-02-02T22:44:56.533Z,67.86
2018-02-02T22:47:25.494Z,67.79
2018-02-02T22:49:54.626Z,68.16
2018-02-02T22:52:23.813Z,68.41
2018-02-02T22:54:53.092Z,68.27
2018-02-02T22:57:21.926Z,67.88
2018-02-02T22:59:50.761Z,67.50
2018-02-02T23:02:19.788Z,67.77
2018-02-02T23:04:48.668Z,68.07
2018-02-02T23:07:17.728Z,68.39
2018-02-02T23:09:46.883Z,68.30
2018-02-02T23:12:15.808Z,67.96
2018-02-02T23:14:44.640Z,67.75
2018-02-02T23:17:13.837Z,68.38
2018-02-02T23:19:42.427Z,67.51
2018-02-02T23:22:11.488Z,67.90
2018-02-02T23:24:40.636Z,67.67
2018-02-02T23:27:09.721Z,67.96
2018-02-02T23:29:38.984Z,68.53
2018-02-02T23:32:08.206Z,68.42
2018-02-02T23:34:37.341Z,68.35
2018-02-02T23:37:06.317Z,68.73
2018-02-02T23:39:36.547Z,69.02
2018-02-02T23:42:07.018Z,68.94
2018-02-02T23:44:38.459Z,68.69
2018-02-02T23:47:10.192Z,69.26
2018-02-02T23:49:39.559Z,68.98
2018-02-02T23:52:10.023Z,68.77
2018-02-02T23:54:40.899Z,68.74
2018-02-02T23:57:11.732Z,68.77
2018-02-02T23:59:42.664Z,68.75
